Time;durP1;ratioP1;P1;durP2;ratioP2;P2;SDS_P1;SDS_P2;PMS_P1;PMS_P2;Temp;Humidity;BMP_temperature;BMP_pressure;BME280_temperature;BME280_humidity;BME280_pressure;Samples;Min_cycle;Max_cycle;Signal;HPM_P1;HPM_P2
2021/08/08 00:02:23;;;;;;;0.70;0.60;;;17.90;99.90;;;;;;5032111;28;20513;-76
2021/08/08 00:04:48;;;;;;;0.80;0.60;;;17.90;99.90;;;;;;5030609;28;20199;-77
2021/08/08 00:07:15;;;;;;;0.70;0.50;;;17.90;99.90;;;;;;5030784;28;20250;-76
2021/08/08 00:09:42;;;;;;;1.00;1.00;;;17.90;99.90;;;;;;5023765;28;20223;-77
2021/08/08 00:12:08;;;;;;;0.97;0.80;;;17.90;99.90;;;;;;5021005;28;20514;-74
2021/08/08 00:14:34;;;;;;;0.90;0.60;;;17.80;99.90;;;;;;5027108;28;20865;-76
2021/08/08 00:16:59;;;;;;;1.20;1.07;;;17.70;99.90;;;;;;5023588;28;20660;-76
2021/08/08 00:19:25;;;;;;;0.70;0.50;;;17.80;99.90;;;;;;5029008;28;20186;-76
2021/08/08 00:21:50;;;;;;;1.30;1.03;;;17.80;99.90;;;;;;5020858;28;20214;-75
2021/08/08 00:24:16;;;;;;;0.73;0.60;;;17.70;99.90;;;;;;5027598;28;20180;-75
2021/08/08 00:26:41;;;;;;;0.80;0.60;;;17.70;99.90;;;;;;5018067;28;20250;-76
2021/08/08 00:29:07;;;;;;;0.70;0.60;;;17.80;99.90;;;;;;5029878;28;20186;-75
2021/08/08 00:31:33;;;;;;;0.70;0.50;;;17.70;99.90;;;;;;5017191;28;20175;-75
2021/08/08 00:33:58;;;;;;;0.70;0.50;;;17.80;99.90;;;;;;5027354;28;20180;-76
2021/08/08 00:36:24;;;;;;;0.70;0.50;;;17.80;99.90;;;;;;5030663;28;20240;-76
2021/08/08 00:38:49;;;;;;;1.27;1.17;;;17.90;99.90;;;;;;5015862;28;20180;-76
2021/08/08 00:41:15;;;;;;;0.70;0.60;;;17.90;99.90;;;;;;5013050;28;20187;-77
2021/08/08 00:43:41;;;;;;;0.93;0.87;;;17.90;99.90;;;;;;5028396;28;20239;-76
2021/08/08 00:46:07;;;;;;;0.70;0.60;;;17.80;99.90;;;;;;5021113;28;20233;-77
2021/08/08 00:48:33;;;;;;;1.53;1.43;;;17.80;99.90;;;;;;5026346;28;20165;-76
2021/08/08 00:50:59;;;;;;;0.77;0.57;;;17.90;99.90;;;;;;5012780;28;20424;-75
2021/08/08 00:53:27;;;;;;;0.77;0.60;;;17.90;99.90;;;;;;5014079;28;20427;-74
2021/08/08 00:55:52;;;;;;;0.70;0.50;;;17.90;99.90;;;;;;5014528;28;20196;-77
2021/08/08 00:58:19;;;;;;;0.80;0.60;;;17.90;99.90;;;;;;5015796;28;20411;-77
2021/08/08 01:00:47;;;;;;;1.53;0.80;;;17.90;99.90;;;;;;5028086;28;20229;-76
2021/08/08 01:03:14;;;;;;;0.70;0.60;;;17.90;99.90;;;;;;5011589;28;20431;-76
2021/08/08 01:05:51;;;;;;;0.70;0.57;;;17.90;99.90;;;;;;5023694;28;20458;-77
2021/08/08 01:08:24;;;;;;;0.70;0.50;;;17.90;99.90;;;;;;5032481;28;20978;-78
2021/08/08 01:10:52;;;;;;;0.70;0.60;;;18.00;99.90;;;;;;5028828;28;20466;-75
2021/08/08 01:13:17;;;;;;;0.70;0.50;;;18.00;99.90;;;;;;5027852;28;20429;-78
2021/08/08 01:15:43;;;;;;;1.00;0.83;;;17.90;99.90;;;;;;5029078;28;20445;-77
2021/08/08 01:18:13;;;;;;;0.70;0.50;;;17.90;99.90;;;;;;5012960;28;20207;-76
2021/08/08 01:20:39;;;;;;;0.87;0.77;;;18.00;99.90;;;;;;5027649;28;20175;-75
2021/08/08 01:23:08;;;;;;;0.80;0.70;;;17.90;99.90;;;;;;5013250;28;20492;-76
2021/08/08 01:25:34;;;;;;;0.80;0.60;;;18.00;99.90;;;;;;5012240;28;20415;-76
2021/08/08 01:28:01;;;;;;;0.70;0.50;;;17.90;99.90;;;;;;5014003;28;20793;-75
2021/08/08 01:30:27;;;;;;;0.70;0.50;;;17.90;99.90;;;;;;5012411;28;20410;-76
2021/08/08 01:33:09;;;;;;;1.10;1.00;;;17.90;99.90;;;;;;5013448;28;20425;-77
2021/08/08 01:35:35;;;;;;;0.70;0.50;;;17.90;99.90;;;;;;5024245;28;20446;-78
2021/08/08 01:38:00;;;;;;;0.70;0.50;;;17.90;99.90;;;;;;5021185;28;20415;-78
2021/08/08 01:40:32;;;;;;;1.13;0.60;;;17.90;99.90;;;;;;4999367;28;20638;-78
2021/08/08 01:43:01;;;;;;;0.70;0.50;;;17.90;99.90;;;;;;5015406;28;20172;-77
2021/08/08 01:45:27;;;;;;;0.70;0.50;;;17.80;99.90;;;;;;5004975;28;20515;-75
2021/08/08 01:47:57;;;;;;;0.70;0.50;;;17.80;99.90;;;;;;5033056;28;20438;-78
2021/08/08 01:50:23;;;;;;;0.80;0.60;;;17.80;99.90;;;;;;5031888;28;20163;-76
2021/08/08 01:52:49;;;;;;;0.87;0.73;;;17.80;99.90;;;;;;5027081;28;20453;-76
2021/08/08 01:55:15;;;;;;;0.70;0.50;;;17.80;99.90;;;;;;5022624;28;20187;-78
2021/08/08 01:57:42;;;;;;;0.80;0.70;;;17.80;99.90;;;;;;5030532;28;20923;-74
2021/08/08 02:00:09;;;;;;;0.70;0.50;;;17.80;99.90;;;;;;5030189;28;20419;-75
2021/08/08 02:02:35;;;;;;;0.70;0.50;;;17.80;99.90;;;;;;5015418;28;20407;-75
2021/08/08 02:05:01;;;;;;;2.40;0.70;;;17.70;99.90;;;;;;5014850;28;20450;-78
2021/08/08 02:07:26;;;;;;;0.70;0.50;;;17.80;99.90;;;;;;5022190;28;20221;-78
2021/08/08 02:09:52;;;;;;;0.70;0.50;;;17.70;99.90;;;;;;5020857;28;20438;-78
2021/08/08 02:12:19;;;;;;;0.73;0.50;;;17.60;99.90;;;;;;5027557;28;20375;-75
2021/08/08 02:14:45;;;;;;;0.70;0.50;;;17.60;99.90;;;;;;5019190;28;20346;-74
2021/08/08 02:17:10;;;;;;;0.80;0.60;;;17.70;99.90;;;;;;5015235;28;20509;-75
2021/08/08 02:19:36;;;;;;;0.70;0.60;;;17.70;99.90;;;;;;5015135;28;20184;-77
2021/08/08 02:22:02;;;;;;;0.80;0.70;;;17.60;99.90;;;;;;5015057;28;20183;-76
2021/08/08 02:24:29;;;;;;;0.70;0.50;;;17.60;99.90;;;;;;5023238;28;20192;-76
2021/08/08 02:26:56;;;;;;;0.70;0.60;;;17.60;99.90;;;;;;5014780;28;20994;-76
2021/08/08 02:29:22;;;;;;;0.80;0.80;;;17.60;99.90;;;;;;5017539;28;20441;-76
2021/08/08 02:31:47;;;;;;;0.80;0.63;;;17.50;99.90;;;;;;5015030;28;20415;-78
2021/08/08 02:34:13;;;;;;;0.90;0.80;;;17.50;99.90;;;;;;5008256;28;20179;-75
2021/08/08 02:36:40;;;;;;;0.73;0.60;;;17.50;99.90;;;;;;5036500;28;20191;-75
2021/08/08 02:39:06;;;;;;;0.70;0.60;;;17.50;99.90;;;;;;5032386;28;20422;-76
2021/08/08 02:41:32;;;;;;;0.70;0.50;;;17.50;99.90;;;;;;5016129;28;20427;-75
2021/08/08 02:43:57;;;;;;;0.70;0.50;;;17.40;99.90;;;;;;5014734;28;20900;-75
2021/08/08 02:46:23;;;;;;;0.93;0.83;;;17.40;99.90;;;;;;5016508;28;20251;-76
2021/08/08 02:48:49;;;;;;;0.70;0.60;;;17.40;99.90;;;;;;5014933;28;20246;-75
2021/08/08 02:51:15;;;;;;;0.80;0.70;;;17.40;99.90;;;;;;5014359;28;20419;-76
2021/08/08 02:53:41;;;;;;;0.87;0.87;;;17.30;99.90;;;;;;5014607;28;20211;-75
2021/08/08 02:56:06;;;;;;;2.40;2.00;;;17.30;99.90;;;;;;5026585;28;20955;-77
2021/08/08 02:58:32;;;;;;;0.80;0.67;;;17.30;99.90;;;;;;5028228;28;20238;-75
2021/08/08 03:00:57;;;;;;;0.83;0.70;;;17.30;99.90;;;;;;4996983;28;20187;-75
2021/08/08 03:03:23;;;;;;;0.73;0.57;;;17.20;99.90;;;;;;5014652;28;20176;-77
2021/08/08 03:05:49;;;;;;;0.90;0.60;;;17.30;99.90;;;;;;5030713;28;20230;-75
2021/08/08 03:08:14;;;;;;;0.80;0.70;;;17.20;99.90;;;;;;5021479;28;20219;-78
2021/08/08 03:10:40;;;;;;;0.80;0.60;;;17.20;99.90;;;;;;5015465;28;20530;-77
2021/08/08 03:13:06;;;;;;;1.10;0.83;;;17.20;99.90;;;;;;5017584;28;20173;-76
2021/08/08 03:15:31;;;;;;;0.73;0.60;;;17.20;99.90;;;;;;5010562;28;20684;-75
2021/08/08 03:17:57;;;;;;;0.80;0.60;;;17.20;99.90;;;;;;5029522;28;20207;-77
2021/08/08 03:20:22;;;;;;;0.80;0.80;;;17.10;99.90;;;;;;5035598;28;20195;-76
2021/08/08 03:22:48;;;;;;;0.77;0.57;;;17.20;99.90;;;;;;5033579;28;20202;-76
2021/08/08 03:25:14;;;;;;;0.80;0.60;;;17.10;99.90;;;;;;5024827;28;20208;-78
2021/08/08 03:27:39;;;;;;;0.90;0.70;;;17.10;99.90;;;;;;5029568;28;20496;-76
2021/08/08 03:30:06;;;;;;;0.80;0.70;;;17.10;99.90;;;;;;5033728;28;20514;-74
2021/08/08 03:32:33;;;;;;;0.70;0.50;;;17.10;99.90;;;;;;5024202;28;20172;-76
2021/08/08 03:34:58;;;;;;;1.73;0.73;;;17.00;99.90;;;;;;5014868;28;20445;-77
2021/08/08 03:37:24;;;;;;;0.80;0.60;;;17.00;99.90;;;;;;5024060;28;20429;-74
2021/08/08 03:39:49;;;;;;;1.27;1.17;;;17.10;99.90;;;;;;5031317;28;20183;-76
2021/08/08 03:42:15;;;;;;;0.73;0.57;;;17.00;99.90;;;;;;5013795;28;20537;-74
2021/08/08 03:44:40;;;;;;;0.80;0.70;;;16.90;99.90;;;;;;5020232;28;20206;-73
2021/08/08 03:47:06;;;;;;;0.80;0.60;;;16.90;99.90;;;;;;5030142;28;20203;-76
2021/08/08 03:49:31;;;;;;;1.03;0.93;;;16.80;99.90;;;;;;5018560;28;20191;-74
2021/08/08 03:51:57;;;;;;;5.37;1.40;;;16.90;99.90;;;;;;5029013;28;20180;-74
2021/08/08 03:54:22;;;;;;;4.87;1.00;;;16.80;99.90;;;;;;5033659;28;20171;-78
2021/08/08 03:56:48;;;;;;;0.70;0.50;;;16.80;99.90;;;;;;5037923;28;20175;-75
2021/08/08 03:59:13;;;;;;;0.70;0.60;;;16.70;99.90;;;;;;5037106;28;20194;-75
2021/08/08 04:01:39;;;;;;;0.70;0.50;;;16.60;99.90;;;;;;5034886;28;20171;-77
2021/08/08 04:04:05;;;;;;;0.90;0.60;;;16.60;99.90;;;;;;5030966;28;20184;-74
2021/08/08 04:06:30;;;;;;;1.00;0.90;;;16.70;99.90;;;;;;5027651;28;20215;-75
2021/08/08 04:08:56;;;;;;;0.70;0.50;;;16.60;99.90;;;;;;5014087;28;20188;-75
2021/08/08 04:11:21;;;;;;;0.80;0.63;;;16.60;99.90;;;;;;5014280;28;20161;-74
2021/08/08 04:13:47;;;;;;;0.70;0.50;;;16.60;99.90;;;;;;5013895;28;20579;-75
2021/08/08 04:16:12;;;;;;;1.30;1.20;;;16.60;99.90;;;;;;5014958;28;20228;-75
2021/08/08 04:18:38;;;;;;;0.70;0.50;;;16.60;99.90;;;;;;5013548;28;20164;-75
2021/08/08 04:21:03;;;;;;;0.93;0.70;;;16.60;99.90;;;;;;5000598;28;20233;-74
2021/08/08 04:23:29;;;;;;;3.53;1.83;;;16.60;99.90;;;;;;5013430;28;20255;-75
2021/08/08 04:25:54;;;;;;;0.70;0.60;;;16.50;99.90;;;;;;5012599;28;20196;-75
2021/08/08 04:28:20;;;;;;;0.97;0.60;;;16.60;99.90;;;;;;5015776;28;20176;-74
2021/08/08 04:30:45;;;;;;;0.70;0.60;;;16.60;99.90;;;;;;5030754;28;20565;-74
2021/08/08 04:33:11;;;;;;;1.03;0.93;;;16.60;99.90;;;;;;5031273;28;20179;-76
2021/08/08 04:35:37;;;;;;;1.23;0.90;;;16.60;99.90;;;;;;5026124;28;20377;-76
2021/08/08 04:38:04;;;;;;;0.80;0.60;;;16.60;99.90;;;;;;5036717;28;20170;-76
2021/08/08 04:40:29;;;;;;;0.70;0.50;;;16.60;99.90;;;;;;5024297;28;20420;-75
2021/08/08 04:42:56;;;;;;;0.80;0.50;;;16.60;99.90;;;;;;5014971;28;20485;-75
2021/08/08 04:45:22;;;;;;;0.80;0.60;;;16.60;99.90;;;;;;5012882;28;20192;-75
2021/08/08 04:47:49;;;;;;;0.70;0.50;;;16.60;99.90;;;;;;5028781;28;20453;-75
2021/08/08 04:50:15;;;;;;;0.97;0.63;;;16.60;99.90;;;;;;5031295;28;20425;-75
2021/08/08 04:52:41;;;;;;;4.30;1.90;;;16.70;99.90;;;;;;5023708;28;20419;-75
2021/08/08 04:55:07;;;;;;;0.70;0.50;;;16.70;99.90;;;;;;5011989;28;20423;-74
2021/08/08 04:57:33;;;;;;;0.80;0.60;;;16.70;99.90;;;;;;5012559;28;20179;-75
2021/08/08 04:59:58;;;;;;;0.70;0.60;;;16.60;99.90;;;;;;5016634;28;20430;-76
2021/08/08 05:02:24;;;;;;;2.03;1.93;;;16.70;99.90;;;;;;5015127;28;20222;-75
2021/08/08 05:04:50;;;;;;;0.70;0.60;;;16.80;99.90;;;;;;5015587;28;20208;-74
2021/08/08 05:07:15;;;;;;;0.70;0.53;;;16.80;99.90;;;;;;5023885;28;20274;-76
2021/08/08 05:09:41;;;;;;;0.97;0.87;;;16.80;99.90;;;;;;5018615;28;20172;-75
2021/08/08 05:12:08;;;;;;;2.83;0.83;;;16.80;99.90;;;;;;5037559;28;20207;-76
2021/08/08 05:14:34;;;;;;;0.70;0.50;;;16.80;99.90;;;;;;5023100;28;20202;-76
2021/08/08 05:17:01;;;;;;;0.90;0.63;;;16.80;99.90;;;;;;5021713;28;20497;-75
2021/08/08 05:19:26;;;;;;;0.70;0.60;;;16.80;99.90;;;;;;5030444;28;20182;-75
2021/08/08 05:21:52;;;;;;;0.90;0.70;;;16.80;99.90;;;;;;5013843;28;20513;-74
2021/08/08 05:24:19;;;;;;;0.80;0.60;;;16.80;99.90;;;;;;5031862;28;20263;-75
2021/08/08 05:26:45;;;;;;;0.70;0.50;;;16.90;99.90;;;;;;5031314;28;20196;-75
2021/08/08 05:29:11;;;;;;;0.70;0.50;;;16.90;99.90;;;;;;5012500;28;20682;-76
2021/08/08 05:31:38;;;;;;;0.70;0.50;;;16.90;99.90;;;;;;5033107;28;20453;-75
2021/08/08 05:34:04;;;;;;;1.10;0.97;;;17.00;99.90;;;;;;5032214;28;20168;-74
2021/08/08 05:36:29;;;;;;;0.70;0.60;;;17.00;99.90;;;;;;5015651;28;20942;-74
2021/08/08 05:38:56;;;;;;;0.70;0.60;;;17.00;99.90;;;;;;5016096;28;20575;-76
2021/08/08 05:41:22;;;;;;;0.80;0.70;;;17.00;99.90;;;;;;5015869;28;20168;-74
2021/08/08 05:43:47;;;;;;;0.73;0.60;;;17.10;99.90;;;;;;5015711;28;20433;-76
2021/08/08 05:46:13;;;;;;;1.13;0.60;;;17.10;99.90;;;;;;5015408;28;20202;-74
2021/08/08 05:48:38;;;;;;;1.00;0.90;;;17.10;99.90;;;;;;5016507;28;20180;-75
2021/08/08 05:51:04;;;;;;;1.27;0.93;;;17.10;99.90;;;;;;5015862;28;20590;-74
2021/08/08 05:53:29;;;;;;;0.90;0.90;;;17.20;99.90;;;;;;5031202;28;20648;-75
2021/08/08 05:55:55;;;;;;;0.80;0.60;;;17.20;99.90;;;;;;5022686;28;20207;-74
2021/08/08 05:58:20;;;;;;;0.80;0.80;;;17.30;99.90;;;;;;5015961;28;20238;-75
2021/08/08 06:00:46;;;;;;;0.70;0.50;;;17.30;99.90;;;;;;5028266;28;20641;-75
2021/08/08 06:03:11;;;;;;;0.70;0.50;;;17.30;99.90;;;;;;5022752;28;20177;-76
2021/08/08 06:05:38;;;;;;;0.70;0.50;;;17.40;99.90;;;;;;5017947;28;20242;-74
2021/08/08 06:08:04;;;;;;;0.80;0.70;;;17.40;99.90;;;;;;5015427;28;20202;-74
2021/08/08 06:10:30;;;;;;;0.70;0.50;;;17.40;99.90;;;;;;5031427;28;20972;-75
2021/08/08 06:12:56;;;;;;;0.90;0.90;;;17.50;99.90;;;;;;5024841;28;20427;-74
2021/08/08 06:15:22;;;;;;;2.10;2.00;;;17.60;99.90;;;;;;5017829;28;20804;-75
2021/08/08 06:17:47;;;;;;;1.23;1.13;;;17.70;99.90;;;;;;5034948;28;20581;-74
2021/08/08 06:20:13;;;;;;;0.70;0.50;;;17.70;99.90;;;;;;5025676;28;20180;-74
2021/08/08 06:22:39;;;;;;;0.80;0.70;;;17.70;99.90;;;;;;5027725;28;20172;-74
2021/08/08 06:25:05;;;;;;;0.80;0.70;;;17.70;99.90;;;;;;5020698;28;20219;-75
2021/08/08 06:27:30;;;;;;;0.90;0.70;;;17.80;99.90;;;;;;5014898;28;20568;-74
2021/08/08 06:29:56;;;;;;;0.80;0.60;;;17.90;99.90;;;;;;5015000;28;20491;-74
2021/08/08 06:32:21;;;;;;;1.20;1.10;;;18.00;99.90;;;;;;5015511;28;20195;-74
2021/08/08 06:34:47;;;;;;;0.87;0.73;;;18.00;99.90;;;;;;5025900;28;20215;-74
2021/08/08 06:37:12;;;;;;;0.70;0.50;;;18.00;99.90;;;;;;5014775;28;20219;-75
2021/08/08 06:39:38;;;;;;;3.23;1.13;;;18.00;99.90;;;;;;5014995;28;20554;-74
2021/08/08 06:42:04;;;;;;;0.70;0.60;;;18.10;99.90;;;;;;5014382;28;20496;-74
2021/08/08 06:44:29;;;;;;;1.00;0.90;;;18.10;99.90;;;;;;5014120;28;20164;-74
2021/08/08 06:46:55;;;;;;;0.90;0.90;;;18.10;99.90;;;;;;5014283;28;20203;-74
2021/08/08 06:49:21;;;;;;;0.70;0.50;;;18.20;99.90;;;;;;5014464;28;20169;-75
2021/08/08 06:51:46;;;;;;;0.70;0.50;;;18.20;99.90;;;;;;5014583;28;20812;-74
2021/08/08 06:54:12;;;;;;;0.90;0.60;;;18.20;99.90;;;;;;5014639;28;20161;-75
2021/08/08 06:56:38;;;;;;;1.60;1.50;;;18.10;99.90;;;;;;5014039;28;20237;-75
2021/08/08 06:59:19;;;;;;;0.90;0.70;;;18.10;99.90;;;;;;5014480;28;20660;-74
2021/08/08 07:01:44;;;;;;;0.70;0.50;;;18.00;99.90;;;;;;5014400;28;20816;-74
2021/08/08 07:04:10;;;;;;;0.70;0.50;;;18.10;99.90;;;;;;5014263;28;20490;-74
2021/08/08 07:06:35;;;;;;;0.80;0.63;;;18.10;99.90;;;;;;5013913;28;20283;-74
2021/08/08 07:09:02;;;;;;;0.70;0.50;;;18.10;99.90;;;;;;5014235;28;20169;-74
2021/08/08 07:11:27;;;;;;;0.70;0.60;;;18.20;99.90;;;;;;5014292;28;20168;-75
2021/08/08 07:13:53;;;;;;;0.80;0.70;;;18.30;99.90;;;;;;5014042;28;20419;-75
2021/08/08 07:16:18;;;;;;;0.70;0.50;;;18.50;99.90;;;;;;5013709;28;20227;-75
2021/08/08 07:18:44;;;;;;;0.70;0.60;;;18.70;99.90;;;;;;4996511;28;20273;-75
2021/08/08 07:21:10;;;;;;;1.93;1.57;;;18.90;99.90;;;;;;5013898;28;20172;-75
2021/08/08 07:23:36;;;;;;;1.10;1.00;;;19.00;99.90;;;;;;5013828;28;20626;-75
2021/08/08 07:26:02;;;;;;;3.90;1.63;;;19.20;99.90;;;;;;5013522;28;20509;-75
2021/08/08 07:28:27;;;;;;;0.80;0.60;;;19.40;99.90;;;;;;5021200;28;20819;-75
2021/08/08 07:30:53;;;;;;;0.90;0.77;;;19.80;99.90;;;;;;5033666;28;20999;-75
2021/08/08 07:33:19;;;;;;;1.27;0.90;;;20.00;99.90;;;;;;5011328;28;20207;-75
2021/08/08 07:35:47;;;;;;;1.47;0.97;;;20.10;99.90;;;;;;5022817;28;20188;-75
2021/08/08 07:38:13;;;;;;;0.80;0.70;;;20.20;99.90;;;;;;5019817;28;20171;-75
2021/08/08 07:40:38;;;;;;;0.80;0.60;;;20.20;99.90;;;;;;5021484;28;20841;-75
2021/08/08 07:43:05;;;;;;;0.90;0.80;;;20.10;99.90;;;;;;5020259;28;20577;-75
2021/08/08 07:45:31;;;;;;;0.90;0.60;;;19.90;99.90;;;;;;5022237;28;20187;-74
2021/08/08 07:47:56;;;;;;;1.30;0.83;;;19.80;99.90;;;;;;5027000;28;20582;-75
2021/08/08 07:50:22;;;;;;;6.93;2.60;;;19.70;99.90;;;;;;5022839;28;20180;-75
2021/08/08 07:52:48;;;;;;;0.90;0.70;;;19.70;99.90;;;;;;5021543;28;20190;-75
2021/08/08 07:55:13;;;;;;;0.97;0.73;;;20.00;99.90;;;;;;5023046;28;20724;-75
2021/08/08 07:57:39;;;;;;;0.80;0.50;;;20.30;99.90;;;;;;5007134;28;20767;-74
2021/08/08 08:00:06;;;;;;;1.07;0.97;;;20.60;99.90;;;;;;5013579;28;20175;-76
2021/08/08 08:02:32;;;;;;;0.80;0.70;;;20.80;99.90;;;;;;5021622;28;20258;-76
2021/08/08 08:04:58;;;;;;;0.90;0.70;;;21.10;99.90;;;;;;5029491;28;20528;-76
2021/08/08 08:07:23;;;;;;;0.90;0.83;;;21.30;99.90;;;;;;5013398;28;20199;-76
2021/08/08 08:09:49;;;;;;;0.80;0.70;;;21.50;99.90;;;;;;5019944;28;20267;-75
2021/08/08 08:12:14;;;;;;;0.70;0.50;;;21.70;99.90;;;;;;5024794;28;20262;-75
2021/08/08 08:14:40;;;;;;;1.27;1.17;;;21.80;99.90;;;;;;5002746;28;20314;-76
2021/08/08 08:17:06;;;;;;;1.23;1.07;;;21.90;99.90;;;;;;5023749;28;20187;-76
2021/08/08 08:19:32;;;;;;;0.80;0.60;;;21.90;99.90;;;;;;5031642;28;20414;-76
2021/08/08 08:21:57;;;;;;;0.80;0.60;;;22.00;99.90;;;;;;5032866;28;20691;-76
2021/08/08 08:24:23;;;;;;;0.80;0.50;;;22.20;99.90;;;;;;5031019;28;20714;-76
2021/08/08 08:26:48;;;;;;;1.10;1.00;;;22.30;99.90;;;;;;5031201;28;20277;-77
2021/08/08 08:29:14;;;;;;;0.97;0.87;;;22.40;99.90;;;;;;5029410;28;20172;-76
2021/08/08 08:31:39;;;;;;;0.80;0.60;;;22.50;99.90;;;;;;5030642;28;20164;-76
2021/08/08 08:34:05;;;;;;;0.80;0.50;;;22.70;99.90;;;;;;5022010;28;20214;-76
2021/08/08 08:36:31;;;;;;;2.13;0.90;;;23.00;99.90;;;;;;5014708;28;20198;-76
2021/08/08 08:38:56;;;;;;;0.80;0.60;;;23.00;99.90;;;;;;5026142;28;20187;-76
2021/08/08 08:41:27;;;;;;;0.83;0.70;;;23.20;99.90;;;;;;5031665;28;20589;-76
2021/08/08 08:43:54;;;;;;;0.80;0.60;;;23.10;99.90;;;;;;5027806;28;20176;-76
2021/08/08 08:46:21;;;;;;;3.40;0.80;;;22.60;99.90;;;;;;5030437;28;20520;-75
2021/08/08 08:48:47;;;;;;;0.80;0.60;;;22.60;99.90;;;;;;5032067;28;20414;-75
2021/08/08 08:51:15;;;;;;;2.50;0.93;;;22.30;99.90;;;;;;5030424;28;20422;-75
2021/08/08 08:53:42;;;;;;;0.80;0.60;;;22.40;99.90;;;;;;5018261;28;20211;-75
2021/08/08 08:56:08;;;;;;;0.80;0.70;;;22.70;99.90;;;;;;5019012;28;20488;-75
2021/08/08 08:58:35;;;;;;;1.00;0.70;;;22.70;99.90;;;;;;5022210;28;20418;-75
2021/08/08 09:01:00;;;;;;;1.50;0.97;;;22.70;99.90;;;;;;5025028;28;20419;-75
2021/08/08 09:03:26;;;;;;;0.83;0.57;;;22.70;99.90;;;;;;5032123;28;20407;-75
2021/08/08 09:05:51;;;;;;;0.90;0.70;;;22.70;99.90;;;;;;5018715;28;20195;-75
2021/08/08 09:08:17;;;;;;;0.80;0.50;;;22.40;99.90;;;;;;5031581;28;20176;-75
2021/08/08 09:10:43;;;;;;;1.57;0.67;;;22.40;99.90;;;;;;5027844;28;20182;-76
2021/08/08 09:13:08;;;;;;;0.80;0.60;;;22.40;99.90;;;;;;5024241;28;20168;-75
2021/08/08 09:15:42;;;;;;;0.80;0.70;;;22.30;99.90;;;;;;5011953;28;20266;-75
2021/08/08 09:18:15;;;;;;;2.80;1.60;;;22.30;99.90;;;;;;5016298;28;20168;-75
2021/08/08 09:20:42;;;;;;;0.90;0.70;;;22.40;99.90;;;;;;5012445;28;20427;-75
2021/08/08 09:23:07;;;;;;;0.83;0.67;;;22.50;99.90;;;;;;5012216;28;20411;-75
2021/08/08 09:25:33;;;;;;;0.87;0.73;;;22.30;99.90;;;;;;5019335;28;20871;-75
2021/08/08 09:28:07;;;;;;;1.00;0.63;;;22.30;99.90;;;;;;5012152;28;20192;-75
2021/08/08 09:30:38;;;;;;;0.80;0.60;;;22.20;99.90;;;;;;5013227;28;20180;-75
2021/08/08 09:33:06;;;;;;;0.80;0.60;;;22.10;99.90;;;;;;5013312;28;20539;-75
2021/08/08 09:35:34;;;;;;;0.80;0.60;;;22.00;99.90;;;;;;5018909;28;20517;-75
2021/08/08 09:38:02;;;;;;;0.80;0.50;;;21.90;99.90;;;;;;5031619;28;20426;-75
2021/08/08 09:40:28;;;;;;;1.57;1.07;;;21.80;99.90;;;;;;5030300;28;20418;-75
2021/08/08 09:42:53;;;;;;;0.80;0.60;;;21.80;99.90;;;;;;5031669;28;20403;-76
2021/08/08 09:45:19;;;;;;;0.80;0.60;;;21.90;99.90;;;;;;5016167;28;20552;-76
2021/08/08 09:47:50;;;;;;;0.90;0.70;;;22.10;99.90;;;;;;5011864;28;20555;-76
2021/08/08 09:50:18;;;;;;;0.80;0.60;;;22.50;99.90;;;;;;5020699;28;20168;-76
2021/08/08 09:52:51;;;;;;;0.80;0.60;;;22.70;99.90;;;;;;5029952;28;20567;-76
2021/08/08 09:55:25;;;;;;;0.80;0.60;;;22.90;99.90;;;;;;5024062;28;20434;-76
2021/08/08 09:57:51;;;;;;;2.17;1.97;;;22.90;99.90;;;;;;5012809;28;20415;-75
2021/08/08 10:00:29;;;;;;;0.80;0.60;;;22.90;99.90;;;;;;5013063;28;20433;-76
2021/08/08 10:02:56;;;;;;;0.80;0.60;;;23.30;99.90;;;;;;5020302;28;20429;-76
2021/08/08 10:05:23;;;;;;;0.90;0.67;;;23.50;99.90;;;;;;5012930;28;20522;-75
2021/08/08 10:07:49;;;;;;;0.80;0.50;;;23.50;99.90;;;;;;5011280;28;20461;-75
2021/08/08 10:10:16;;;;;;;0.90;0.60;;;23.10;99.90;;;;;;5011605;28;20430;-75
2021/08/08 10:13:10;;;;;;;0.93;0.60;;;23.00;99.90;;;;;;5012745;28;20415;-75
2021/08/08 10:15:39;;;;;;;1.10;0.70;;;22.90;99.90;;;;;;5011238;28;20442;-75
2021/08/08 10:18:06;;;;;;;0.77;0.50;;;23.00;99.90;;;;;;5014223;28;20981;-75
2021/08/08 10:20:34;;;;;;;0.80;0.60;;;23.30;99.90;;;;;;5029996;28;20512;-75
2021/08/08 10:23:01;;;;;;;0.90;0.60;;;23.80;99.90;;;;;;5017161;28;20425;-75
2021/08/08 10:25:27;;;;;;;1.10;0.70;;;24.20;99.90;;;;;;5032822;28;20441;-75
2021/08/08 10:27:53;;;;;;;2.00;0.70;;;23.80;99.90;;;;;;5024554;28;20462;-75
2021/08/08 10:30:18;;;;;;;0.90;0.60;;;23.80;99.90;;;;;;5031958;28;20302;-75
2021/08/08 10:32:44;;;;;;;2.50;0.70;;;23.70;99.90;;;;;;5019491;28;20481;-75
2021/08/08 10:35:16;;;;;;;1.03;0.93;;;23.40;99.90;;;;;;5014781;28;20188;-74
2021/08/08 10:37:43;;;;;;;0.80;0.50;;;23.30;99.90;;;;;;5014853;28;20481;-74
2021/08/08 10:40:11;;;;;;;0.80;0.50;;;23.10;99.90;;;;;;5019759;28;20423;-74
2021/08/08 10:42:45;;;;;;;0.80;0.60;;;22.90;99.90;;;;;;5026022;28;20432;-74
2021/08/08 10:45:28;;;;;;;1.00;0.90;;;22.60;99.90;;;;;;5030918;28;20443;-74
2021/08/08 10:48:01;;;;;;;0.80;0.63;;;22.20;99.90;;;;;;5014607;28;20508;-74
2021/08/08 10:50:41;;;;;;;1.00;0.70;;;22.10;99.90;;;;;;5014522;28;20983;-74
2021/08/08 10:53:20;;;;;;;0.80;0.60;;;21.90;99.90;;;;;;4997098;28;20508;-74
2021/08/08 10:55:46;;;;;;;9.27;6.03;;;22.00;99.90;;;;;;4997757;28;20469;-75
2021/08/08 10:58:16;;;;;;;0.73;0.50;;;22.00;99.90;;;;;;5032586;28;20430;-74
2021/08/08 11:00:43;;;;;;;1.20;0.97;;;22.00;99.90;;;;;;5023804;28;20422;-74
2021/08/08 11:03:18;;;;;;;0.70;0.60;;;22.00;99.90;;;;;;5033795;28;20426;-74
2021/08/08 11:05:44;;;;;;;0.80;0.57;;;22.00;99.90;;;;;;5021593;28;20474;-74
2021/08/08 11:08:12;;;;;;;0.80;0.60;;;22.10;99.90;;;;;;5027470;28;20500;-75
2021/08/08 11:10:41;;;;;;;0.90;0.60;;;22.10;99.90;;;;;;5032535;28;20955;-74
2021/08/08 11:13:21;;;;;;;1.00;0.60;;;22.20;99.90;;;;;;5021529;28;20476;-75
2021/08/08 11:15:48;;;;;;;0.90;0.57;;;22.20;99.90;;;;;;5006775;28;20450;-74
2021/08/08 11:18:13;;;;;;;0.80;0.60;;;22.20;99.90;;;;;;4994537;28;20419;-75
2021/08/08 11:20:40;;;;;;;0.80;0.60;;;22.20;99.90;;;;;;5009463;28;20411;-75
2021/08/08 11:23:06;;;;;;;0.70;0.50;;;22.00;99.90;;;;;;5013830;28;20180;-74
2021/08/08 11:25:42;;;;;;;0.80;0.60;;;22.00;99.90;;;;;;4995553;28;20505;-74
2021/08/08 11:28:10;;;;;;;0.80;0.60;;;22.00;99.90;;;;;;5013947;28;20630;-75
2021/08/08 11:30:42;;;;;;;0.80;0.60;;;22.20;99.90;;;;;;4995496;28;20479;-76
2021/08/08 11:33:08;;;;;;;0.80;0.60;;;22.80;99.90;;;;;;5014366;28;20403;-77
2021/08/08 11:35:33;;;;;;;0.83;0.67;;;23.30;99.90;;;;;;4995957;28;20457;-74
2021/08/08 11:37:59;;;;;;;0.80;0.53;;;24.00;99.90;;;;;;4994392;28;20932;-74
2021/08/08 11:40:30;;;;;;;0.83;0.57;;;24.40;99.90;;;;;;5013803;28;20207;-74
2021/08/08 11:43:04;;;;;;;1.00;0.70;;;24.50;99.90;;;;;;5013566;28;20913;-75
2021/08/08 11:45:38;;;;;;;1.30;0.80;;;24.60;99.90;;;;;;5011699;28;20473;-75
2021/08/08 11:48:06;;;;;;;1.00;0.60;;;24.30;99.90;;;;;;4982333;28;20873;-74
2021/08/08 11:50:31;;;;;;;0.80;0.50;;;23.80;99.90;;;;;;4998463;28;20422;-74
2021/08/08 11:53:02;;;;;;;0.90;0.70;;;23.30;99.90;;;;;;5002450;28;20884;-74
2021/08/08 11:55:31;;;;;;;1.00;0.87;;;23.10;99.90;;;;;;5011617;28;20565;-75
2021/08/08 11:58:07;;;;;;;0.80;0.60;;;23.40;99.90;;;;;;5000670;28;20428;-75
2021/08/08 12:00:35;;;;;;;0.80;0.60;;;23.80;99.90;;;;;;4998599;28;20443;-75
2021/08/08 12:03:01;;;;;;;0.87;0.60;;;24.20;99.90;;;;;;5004442;28;20531;-76
2021/08/08 12:05:28;;;;;;;1.03;0.93;;;24.60;99.90;;;;;;5010179;28;21065;-76
2021/08/08 12:07:54;;;;;;;0.90;0.60;;;25.10;99.90;;;;;;4995753;28;20555;-77
2021/08/08 12:10:31;;;;;;;0.80;0.60;;;25.40;99.90;;;;;;5000352;28;20420;-76
2021/08/08 12:12:56;;;;;;;4.10;1.13;;;25.70;99.90;;;;;;5007718;28;20438;-76
2021/08/08 12:15:36;;;;;;;0.80;0.60;;;26.20;99.90;;;;;;5024560;28;20457;-75
2021/08/08 12:18:04;;;;;;;1.00;0.70;;;26.20;99.20;;;;;;5014990;28;20546;-76
2021/08/08 12:20:41;;;;;;;0.80;0.60;;;25.90;99.90;;;;;;5019725;28;20411;-74
2021/08/08 12:23:15;;;;;;;0.90;0.70;;;25.60;98.40;;;;;;5026380;28;20425;-73
2021/08/08 12:25:44;;;;;;;1.27;0.67;;;25.10;98.10;;;;;;5014759;28;20454;-74
2021/08/08 12:28:22;;;;;;;0.80;0.50;;;24.80;99.90;;;;;;5012826;28;20474;-72
2021/08/08 12:30:48;;;;;;;0.80;0.73;;;24.50;99.60;;;;;;5024334;28;20826;-73
2021/08/08 12:33:16;;;;;;;0.80;0.60;;;24.30;99.90;;;;;;5014986;28;20445;-73
2021/08/08 12:35:43;;;;;;;0.80;0.50;;;24.00;99.90;;;;;;5023816;28;20204;-73
2021/08/08 12:38:14;;;;;;;1.10;1.00;;;23.90;99.90;;;;;;5012548;28;20400;-73
2021/08/08 12:40:45;;;;;;;0.80;0.50;;;23.80;99.90;;;;;;5017853;28;20414;-73
2021/08/08 12:43:11;;;;;;;0.80;0.60;;;23.70;99.90;;;;;;5013282;28;20515;-73
2021/08/08 12:45:38;;;;;;;0.80;0.60;;;23.60;99.90;;;;;;5012368;28;20427;-72
2021/08/08 12:48:04;;;;;;;0.80;0.50;;;23.50;99.90;;;;;;5012984;28;20462;-73